createdAt,value
2022-12-03T00:02:21.560Z,98602.13
2022-12-03T00:04:52.311Z,98600.27
2022-12-03T00:07:23.165Z,98595.94
2022-12-03T00:09:53.574Z,98595.02
2022-12-03T00:12:24.033Z,98591.77
2022-12-03T00:14:54.791Z,98592.32
2022-12-03T00:17:25.454Z,98588.07
2022-12-03T00:19:55.851Z,98591.34
2022-12-03T00:22:26.324Z,98585.94
2022-12-03T00:24:56.988Z,98585.96
2022-12-03T00:27:27.762Z,98586.48
2022-12-03T00:29:58.128Z,98585.98
2022-12-03T00:32:28.984Z,98586.55
2022-12-03T00:34:59.537Z,98586.60
2022-12-03T00:37:30.068Z,98589.71
2022-12-03T00:40:00.444Z,98588.21
2022-12-03T00:42:30.865Z,98587.69
2022-12-03T00:45:04.129Z,98583.63
2022-12-03T00:47:34.764Z,98584.00
2022-12-03T00:50:05.401Z,98580.98
2022-12-03T00:52:35.814Z,98578.95
2022-12-03T00:55:09.994Z,98575.23
2022-12-03T00:57:40.359Z,98569.44
2022-12-03T01:00:12.879Z,98571.54
2022-12-03T01:02:43.736Z,98571.24
2022-12-03T01:05:14.222Z,98570.41
2022-12-03T01:07:44.819Z,98573.30
2022-12-03T01:10:15.712Z,98574.31
2022-12-03T01:12:46.323Z,98574.68
2022-12-03T01:15:17.268Z,98575.57
2022-12-03T01:17:47.872Z,98574.93
2022-12-03T01:20:18.503Z,98577.00
2022-12-03T01:22:51.437Z,98581.23
2022-12-03T01:25:20.346Z,98580.38
2022-12-03T01:27:50.784Z,98580.21
2022-12-03T01:30:21.663Z,98584.30
2022-12-03T01:32:52.090Z,98583.63
2022-12-03T01:35:22.578Z,98585.49
2022-12-03T01:37:53.102Z,98589.06
2022-12-03T01:40:23.815Z,98582.61
2022-12-03T01:42:54.246Z,98579.22
2022-12-03T01:45:26.326Z,98581.28
2022-12-03T01:47:56.795Z,98579.89
2022-12-03T01:50:31.061Z,98580.90
2022-12-03T01:53:04.957Z,98581.91
2022-12-03T01:55:35.454Z,98579.23
2022-12-03T01:58:06.303Z,98579.61
2022-12-03T02:00:36.713Z,98582.84
2022-12-03T02:03:15.116Z,98585.19
2022-12-03T02:05:45.678Z,98582.98
2022-12-03T02:08:33.687Z,98586.20
2022-12-03T02:11:06.376Z,98587.23
2022-12-03T02:13:37.156Z,98584.67
2022-12-03T02:16:08.387Z,98587.70
2022-12-03T02:18:38.947Z,98586.17
2022-12-03T02:21:17.088Z,98582.95
2022-12-03T02:23:51.173Z,98588.91
2022-12-03T02:32:16.959Z,98590.13
2022-12-03T02:34:48.562Z,98587.03
2022-12-03T02:37:21.725Z,98587.21
2022-12-03T02:39:54.917Z,98587.14
2022-12-03T02:42:37.667Z,98585.95
2022-12-03T02:45:11.483Z,98587.30
2022-12-03T02:47:44.146Z,98582.89
2022-12-03T02:50:15.953Z,98581.54
2022-12-03T02:52:47.543Z,98582.70
2022-12-03T02:55:19.013Z,98580.98
2022-12-03T02:57:50.036Z,98580.66
2022-12-03T03:00:22.929Z,98577.98
2022-12-03T03:02:51.986Z,98574.42
2022-12-03T03:05:24.404Z,98580.21
2022-12-03T03:07:55.027Z,98581.71
2022-12-03T03:10:25.872Z,98585.30
2022-12-03T03:12:57.546Z,98583.30
2022-12-03T03:15:28.054Z,98585.73
2022-12-03T03:17:58.552Z,98586.05
2022-12-03T03:20:28.972Z,98583.13
2022-12-03T03:23:13.090Z,98581.06
2022-12-03T03:25:46.302Z,98583.01
2022-12-03T03:28:17.289Z,98582.52
2022-12-03T03:30:47.840Z,98582.85
2022-12-03T03:33:18.730Z,98579.41
2022-12-03T03:35:50.770Z,98579.73
2022-12-03T03:38:22.200Z,98579.57
2022-12-03T03:40:53.650Z,98578.95
2022-12-03T03:43:24.427Z,98577.45
2022-12-03T03:45:56.127Z,98575.91
2022-12-03T03:48:26.756Z,98573.00
2022-12-03T03:50:57.504Z,98575.33
2022-12-03T03:53:28.019Z,98569.88
2022-12-03T03:55:58.670Z,98567.98
2022-12-03T03:58:29.110Z,98565.55
2022-12-03T04:00:59.609Z,98566.36
2022-12-03T04:03:30.576Z,98562.25
2022-12-03T04:06:01.099Z,98561.41
2022-12-03T04:08:31.628Z,98558.63
2022-12-03T04:11:19.727Z,98557.02
2022-12-03T04:13:50.093Z,98558.83
2022-12-03T04:16:20.597Z,98555.90
2022-12-03T04:18:51.027Z,98555.23
2022-12-03T04:21:40.837Z,98553.83
2022-12-03T04:24:12.407Z,98552.59
2022-12-03T04:27:00.192Z,98550.35
2022-12-03T04:29:30.624Z,98550.37
2022-12-03T04:32:18.614Z,98549.70
2022-12-03T04:35:06.508Z,98548.52
2022-12-03T04:37:37.522Z,98544.94
2022-12-03T04:40:30.289Z,98538.64
2022-12-03T04:43:00.778Z,98535.40
2022-12-03T04:45:31.379Z,98533.91
2022-12-03T04:48:01.763Z,98533.97
2022-12-03T04:50:32.241Z,98528.20
2022-12-03T04:53:02.837Z,98529.54
2022-12-03T04:55:33.291Z,98531.04
2022-12-03T04:58:07.161Z,98535.27
2022-12-03T05:00:37.591Z,98537.52
2022-12-03T05:03:08.056Z,98539.90
2022-12-03T05:05:38.500Z,98537.63
2022-12-03T05:08:09.305Z,98535.41
2022-12-03T05:10:39.755Z,98541.94
2022-12-03T05:13:10.235Z,98540.61
2022-12-03T05:15:40.614Z,98539.79
2022-12-03T05:18:11.100Z,98540.59
2022-12-03T05:20:49.831Z,98538.52
2022-12-03T05:23:23.889Z,98541.93
2022-12-03T05:25:54.408Z,98546.91
2022-12-03T05:28:24.945Z,98541.83
2022-12-03T05:30:55.523Z,98543.22
2022-12-03T05:33:26.243Z,98547.29
2022-12-03T05:35:56.656Z,98546.25
2022-12-03T05:38:27.225Z,98547.98
2022-12-03T05:40:57.716Z,98542.73
2022-12-03T05:43:28.301Z,98544.14
2022-12-03T05:45:58.865Z,98540.73
2022-12-03T05:48:29.448Z,98541.56
2022-12-03T05:50:59.937Z,98545.48
2022-12-03T05:53:30.280Z,98546.88
2022-12-03T05:56:00.775Z,98547.98
2022-12-03T05:58:31.577Z,98549.19
2022-12-03T06:01:01.986Z,98551.23
2022-12-03T06:03:32.584Z,98552.89
2022-12-03T06:06:03.220Z,98554.05
2022-12-03T06:08:33.647Z,98554.73
2022-12-03T06:11:04.084Z,98554.27
2022-12-03T06:13:34.546Z,98552.75
2022-12-03T06:16:05.331Z,98549.17
2022-12-03T06:18:35.859Z,98546.70
2022-12-03T06:21:07.715Z,98543.42
2022-12-03T06:23:44.544Z,98539.50
2022-12-03T06:26:15.569Z,98541.27
2022-12-03T06:28:49.051Z,98540.75
2022-12-03T06:31:19.516Z,98541.05
2022-12-03T06:33:49.976Z,98539.81
2022-12-03T06:36:23.265Z,98537.62
2022-12-03T06:38:53.976Z,98538.86
2022-12-03T06:41:24.341Z,98538.73
2022-12-03T06:43:54.790Z,98537.14
2022-12-03T06:46:25.361Z,98533.01
2022-12-03T06:48:55.901Z,98534.34
2022-12-03T06:51:26.317Z,98531.28
2022-12-03T06:53:56.686Z,98529.44
2022-12-03T06:56:32.806Z,98531.65
2022-12-03T06:59:06.131Z,98529.23
2022-12-03T07:01:36.725Z,98526.98
2022-12-03T07:04:07.337Z,98526.47
2022-12-03T07:06:37.865Z,98528.02
2022-12-03T07:09:08.304Z,98530.79
2022-12-03T07:11:41.041Z,98531.27
2022-12-03T07:14:12.837Z,98531.94
2022-12-03T07:16:43.974Z,98532.27
2022-12-03T07:19:14.532Z,98531.25
2022-12-03T07:21:44.953Z,98532.46
2022-12-03T07:24:15.347Z,98532.49
2022-12-03T07:26:45.706Z,98534.56
2022-12-03T07:29:16.055Z,98532.00
2022-12-03T07:31:46.573Z,98534.38
2022-12-03T07:34:17.070Z,98536.13
2022-12-03T07:36:47.489Z,98534.67
2022-12-03T07:39:18.848Z,98539.63
2022-12-03T07:41:49.318Z,98538.77
2022-12-03T07:44:19.682Z,98540.48
2022-12-03T07:46:50.352Z,98545.17
2022-12-03T07:49:20.787Z,98540.30
2022-12-03T07:51:54.531Z,98540.99
2022-12-03T07:54:26.043Z,98544.55
2022-12-03T07:57:01.114Z,98551.55
2022-12-03T07:59:32.473Z,98547.51
2022-12-03T08:02:03.421Z,98547.20
2022-12-03T08:04:33.880Z,98545.66
2022-12-03T08:07:04.276Z,98548.70
2022-12-03T08:09:34.703Z,98548.36
2022-12-03T08:12:09.720Z,98543.59
2022-12-03T08:14:40.383Z,98542.83
2022-12-03T08:17:13.792Z,98544.58
2022-12-03T08:19:48.013Z,98545.62
2022-12-03T08:22:18.544Z,98543.44
2022-12-03T08:24:48.914Z,98543.09
2022-12-03T08:27:21.461Z,98545.70
2022-12-03T08:29:52.173Z,98546.45
2022-12-03T08:32:22.647Z,98547.17
2022-12-03T08:34:53.575Z,98545.67
2022-12-03T08:37:24.214Z,98545.64
2022-12-03T08:39:57.083Z,98548.54
2022-12-03T08:42:43.310Z,98547.67
2022-12-03T08:45:42.568Z,98549.27
2022-12-03T08:48:37.776Z,98553.05
2022-12-03T08:51:14.155Z,98552.20
2022-12-03T08:53:48.923Z,98547.61
2022-12-03T08:56:26.862Z,98546.95
2022-12-03T08:58:59.064Z,98547.86
2022-12-03T09:01:34.925Z,98549.32
2022-12-03T09:04:19.726Z,98549.91
2022-12-03T09:06:50.149Z,98545.73
2022-12-03T09:09:20.498Z,98546.42
2022-12-03T09:11:51.290Z,98544.06
2022-12-03T09:14:22.635Z,98541.23
2022-12-03T09:16:55.590Z,98543.17
2022-12-03T09:19:27.912Z,98544.45
2022-12-03T09:21:58.303Z,98543.81
2022-12-03T09:24:28.744Z,98544.84
2022-12-03T09:26:59.450Z,98548.80
2022-12-03T09:29:30.059Z,98545.98
2022-12-03T09:32:00.607Z,98548.27
2022-12-03T09:34:31.172Z,98544.06
2022-12-03T09:37:01.934Z,98545.14
2022-12-03T09:39:32.416Z,98543.34
2022-12-03T09:42:03.498Z,98545.45
2022-12-03T09:44:37.654Z,98540.39
2022-12-03T09:47:08.399Z,98541.81
2022-12-03T09:49:40.765Z,98537.45
2022-12-03T09:52:15.058Z,98529.05
2022-12-03T09:54:47.660Z,98527.50
2022-12-03T09:57:19.291Z,98525.13
2022-12-03T09:59:49.688Z,98518.63
2022-12-03T10:02:23.469Z,98515.80
2022-12-03T10:04:55.310Z,98515.54
2022-12-03T10:07:27.025Z,98510.55
2022-12-03T10:09:57.672Z,98508.10
2022-12-03T10:12:28.295Z,98499.86
2022-12-03T10:14:58.745Z,98496.98
2022-12-03T10:17:29.227Z,98495.61
2022-12-03T10:19:59.676Z,98493.40
2022-12-03T10:22:30.030Z,98489.55
2022-12-03T10:25:11.643Z,98485.86
2022-12-03T10:27:42.428Z,98482.17
2022-12-03T10:30:20.503Z,98478.55
2022-12-03T10:32:52.218Z,98472.94
2022-12-03T10:35:24.383Z,98467.14
2022-12-03T10:38:02.016Z,98473.09
2022-12-03T10:40:33.739Z,98473.23
2022-12-03T10:43:22.074Z,98466.73
2022-12-03T10:45:53.327Z,98468.91
2022-12-03T10:48:25.527Z,98474.23
2022-12-03T10:50:58.258Z,98478.51
2022-12-03T10:53:32.009Z,98479.59
2022-12-03T10:56:04.302Z,98473.77
2022-12-03T10:58:38.362Z,98468.34
2022-12-03T11:01:18.384Z,98467.67
2022-12-03T11:03:49.196Z,98462.33
2022-12-03T11:06:21.057Z,98456.13
2022-12-03T11:08:57.151Z,98458.27
2022-12-03T11:11:30.006Z,98458.28
2022-12-03T11:14:01.602Z,98455.07
2022-12-03T11:17:09.825Z,98452.52
2022-12-03T11:19:51.919Z,98448.01
2022-12-03T11:22:39.449Z,98445.42
2022-12-03T11:25:55.856Z,98444.71
2022-12-03T11:28:55.569Z,98441.91
2022-12-03T11:31:42.065Z,98439.94
2022-12-03T11:34:45.353Z,98434.73
2022-12-03T11:37:28.891Z,98437.60
2022-12-03T11:40:39.572Z,98437.25
2022-12-03T11:43:12.132Z,98437.80
2022-12-03T11:45:43.960Z,98434.72
2022-12-03T11:48:16.128Z,98430.09
2022-12-03T11:50:51.045Z,98425.14
2022-12-03T11:53:22.886Z,98423.77
2022-12-03T11:56:06.154Z,98425.38
2022-12-03T11:58:38.182Z,98422.52
2022-12-03T12:01:09.967Z,98416.23
2022-12-03T12:03:46.111Z,98414.69
2022-12-03T12:06:18.507Z,98411.42
2022-12-03T12:08:59.574Z,98407.46
2022-12-03T12:11:31.524Z,98399.30
2022-12-03T12:14:02.814Z,98396.05
2022-12-03T12:16:42.328Z,98390.92
2022-12-03T12:19:36.950Z,98383.35
2022-12-03T12:29:28.933Z,98377.23
2022-12-03T12:32:08.962Z,98376.50
2022-12-03T12:34:41.122Z,98374.95
2022-12-03T12:37:15.428Z,98375.30
2022-12-03T12:39:46.224Z,98374.30
2022-12-03T12:42:37.433Z,98370.91
2022-12-03T12:45:18.140Z,98377.23
2022-12-03T12:47:56.851Z,98376.55
2022-12-03T12:50:28.042Z,98377.28
2022-12-03T12:53:02.579Z,98375.73
2022-12-03T12:55:33.190Z,98374.52
2022-12-03T12:58:08.627Z,98376.02
2022-12-03T13:00:39.326Z,98374.64
2022-12-03T13:03:11.795Z,98375.83
2022-12-03T13:05:43.870Z,98377.53
2022-12-03T13:08:27.413Z,98376.64
2022-12-03T13:10:58.897Z,98377.20
2022-12-03T13:13:34.637Z,98376.20
2022-12-03T13:16:10.476Z,98375.65
2022-12-03T13:18:47.905Z,98377.52
2022-12-03T13:21:26.659Z,98381.45
2022-12-03T13:23:58.927Z,98377.37
2022-12-03T13:26:39.098Z,98376.90
2022-12-03T13:29:17.283Z,98377.09
2022-12-03T13:31:51.880Z,98372.98
2022-12-03T13:34:24.287Z,98375.99
2022-12-03T13:36:58.401Z,98370.16
2022-12-03T13:39:35.022Z,98371.86
2022-12-03T13:42:33.669Z,98369.66
2022-12-03T13:45:20.646Z,98367.42
2022-12-03T13:47:55.961Z,98360.71
2022-12-03T13:50:32.484Z,98360.67
2022-12-03T13:53:05.955Z,98355.89
2022-12-03T13:55:36.695Z,98353.54
2022-12-03T13:58:07.037Z,98355.41
2022-12-03T14:00:37.581Z,98351.84
2022-12-03T14:03:08.471Z,98350.29
2022-12-03T14:05:38.794Z,98347.86
2022-12-03T14:08:09.278Z,98348.21
2022-12-03T14:10:39.597Z,98348.22
2022-12-03T14:13:09.946Z,98348.05
2022-12-03T14:15:40.462Z,98351.56
2022-12-03T14:18:10.826Z,98348.13
2022-12-03T14:20:41.205Z,98349.64
2022-12-03T14:23:11.721Z,98343.36
2022-12-03T14:25:43.834Z,98342.02
2022-12-03T14:28:14.301Z,98343.34
2022-12-03T14:30:44.706Z,98345.67
2022-12-03T14:33:15.189Z,98341.02
2022-12-03T14:35:45.644Z,98340.33
2022-12-03T14:38:17.504Z,98340.02
2022-12-03T14:40:47.845Z,98342.86
2022-12-03T14:43:18.441Z,98340.11
2022-12-03T14:45:48.934Z,98340.77
2022-12-03T14:48:19.466Z,98338.88
2022-12-03T14:50:50.048Z,98339.39
2022-12-03T14:53:25.628Z,98334.95
2022-12-03T14:55:59.252Z,98332.51
2022-12-03T14:58:29.767Z,98331.83
2022-12-03T15:01:00.261Z,98331.35
2022-12-03T15:03:30.784Z,98331.72
2022-12-03T15:06:01.466Z,98331.36
2022-12-03T15:08:32.179Z,98338.31
2022-12-03T15:11:02.592Z,98339.97
2022-12-03T15:13:33.092Z,98337.60
2022-12-03T15:16:03.621Z,98338.30
2022-12-03T15:18:34.513Z,98343.56
2022-12-03T15:21:04.938Z,98345.39
2022-12-03T15:23:37.349Z,98343.63
2022-12-03T15:26:08.252Z,98345.64
2022-12-03T15:28:39.000Z,98350.27
2022-12-03T15:31:09.845Z,98351.81
2022-12-03T15:33:41.765Z,98348.86
2022-12-03T15:36:12.593Z,98349.86
2022-12-03T15:38:43.004Z,98347.30
2022-12-03T15:41:24.310Z,98349.02
2022-12-03T15:43:54.828Z,98346.14
2022-12-03T15:46:26.023Z,98345.77
2022-12-03T15:48:56.858Z,98348.13
2022-12-03T15:51:27.728Z,98345.89
2022-12-03T15:53:58.259Z,98343.82
2022-12-03T15:56:28.734Z,98343.30
2022-12-03T15:58:59.215Z,98344.85
2022-12-03T16:01:29.644Z,98347.55
2022-12-03T16:04:00.208Z,98347.00
2022-12-03T16:06:30.714Z,98348.21
2022-12-03T16:09:01.118Z,98345.15
2022-12-03T16:11:31.735Z,98352.65
2022-12-03T16:14:02.259Z,98350.56
2022-12-03T16:16:32.990Z,98355.98
2022-12-03T16:19:03.467Z,98358.00
2022-12-03T16:21:34.910Z,98360.20
2022-12-03T16:24:08.984Z,98360.07
2022-12-03T16:26:39.537Z,98358.18
2022-12-03T16:29:10.089Z,98354.25
2022-12-03T16:31:40.496Z,98354.07
2022-12-03T16:34:26.662Z,98352.57
2022-12-03T16:36:57.148Z,98350.52
2022-12-03T16:39:27.666Z,98345.91
2022-12-03T16:41:58.112Z,98353.25
2022-12-03T16:44:32.996Z,98351.52
2022-12-03T16:47:03.888Z,98348.27
2022-12-03T16:49:34.400Z,98346.39
2022-12-03T16:52:05.064Z,98338.89
2022-12-03T16:54:46.075Z,98339.71
2022-12-03T16:57:16.751Z,98342.95
2022-12-03T16:59:47.197Z,98341.92
2022-12-03T17:02:17.620Z,98342.59
2022-12-03T17:04:48.040Z,98343.77
2022-12-03T17:07:18.448Z,98339.88
2022-12-03T17:09:49.017Z,98339.57
2022-12-03T17:12:19.497Z,98337.70
2022-12-03T17:14:50.002Z,98334.79
2022-12-03T17:17:21.499Z,98336.80
2022-12-03T17:19:53.492Z,98333.02
2022-12-03T17:22:24.247Z,98331.67
2022-12-03T17:24:55.497Z,98329.79
2022-12-03T17:27:25.995Z,98332.67
2022-12-03T17:29:56.835Z,98334.00
2022-12-03T17:32:27.593Z,98331.64
2022-12-03T17:34:58.057Z,98328.08
2022-12-03T17:37:28.553Z,98328.58
2022-12-03T17:39:59.028Z,98326.13
2022-12-03T17:42:29.436Z,98320.16
2022-12-03T17:44:59.906Z,98318.17
2022-12-03T17:47:30.377Z,98315.11
2022-12-03T17:50:03.773Z,98312.36
2022-12-03T17:52:34.178Z,98314.38
2022-12-03T17:55:13.990Z,98312.83
2022-12-03T17:57:48.323Z,98313.54
2022-12-03T18:00:19.429Z,98314.41
2022-12-03T18:02:49.795Z,98312.89
2022-12-03T18:05:20.264Z,98308.61
2022-12-03T18:07:50.753Z,98307.80
2022-12-03T18:10:21.196Z,98308.30
2022-12-03T18:12:51.664Z,98308.98
2022-12-03T18:15:22.243Z,98314.13
2022-12-03T18:17:52.754Z,98311.93
2022-12-03T18:20:23.135Z,98312.39
2022-12-03T18:22:53.842Z,98314.78
2022-12-03T18:25:24.244Z,98311.22
2022-12-03T18:27:54.687Z,98312.77
2022-12-03T18:30:25.389Z,98310.73
2022-12-03T18:32:55.894Z,98307.31
2022-12-03T18:35:26.432Z,98302.20
2022-12-03T18:37:56.940Z,98302.36
2022-12-03T18:40:27.963Z,98305.27
2022-12-03T18:42:59.289Z,98305.27
2022-12-03T18:45:29.744Z,98306.48
2022-12-03T18:48:00.190Z,98304.76
2022-12-03T18:50:30.669Z,98305.27
2022-12-03T18:53:01.440Z,98304.25
2022-12-03T18:55:34.618Z,98300.33
2022-12-03T18:58:05.111Z,98298.80
2022-12-03T19:00:36.258Z,98298.27
2022-12-03T19:03:07.203Z,98293.06
2022-12-03T19:05:39.282Z,98292.54
2022-12-03T19:08:14.491Z,98293.39
2022-12-03T19:10:45.654Z,98295.27
2022-12-03T19:13:16.194Z,98294.90
2022-12-03T19:15:48.990Z,98296.09
2022-12-03T19:18:19.514Z,98294.20
2022-12-03T19:20:50.318Z,98295.42
2022-12-03T19:23:20.823Z,98295.10
2022-12-03T19:25:59.416Z,98292.19
2022-12-03T19:28:30.288Z,98292.83
2022-12-03T19:31:02.284Z,98289.62
2022-12-03T19:33:34.143Z,98289.32
2022-12-03T19:36:06.575Z,98287.46
2022-12-03T19:38:37.299Z,98287.14
2022-12-03T19:41:09.328Z,98282.14
2022-12-03T19:43:40.605Z,98285.04
2022-12-03T19:46:12.559Z,98285.39
2022-12-03T19:48:43.460Z,98282.67
2022-12-03T19:51:33.720Z,98280.80
2022-12-03T19:54:05.024Z,98283.65
2022-12-03T19:56:36.021Z,98284.33
2022-12-03T19:59:07.679Z,98280.94
2022-12-03T20:01:40.464Z,98279.23
2022-12-03T20:04:11.544Z,98279.89
2022-12-03T20:06:42.130Z,98276.48
2022-12-03T20:09:16.274Z,98277.02
2022-12-03T20:11:47.087Z,98277.36
2022-12-03T20:14:19.661Z,98277.54
2022-12-03T20:16:50.201Z,98274.80
2022-12-03T20:19:20.727Z,98274.95
2022-12-03T20:21:51.068Z,98276.48
2022-12-03T20:24:21.446Z,98277.67
2022-12-03T20:26:51.884Z,98276.66
2022-12-03T20:29:23.250Z,98275.46
2022-12-03T20:31:53.723Z,98277.15
2022-12-03T20:34:24.203Z,98278.33
2022-12-03T20:36:54.582Z,98279.38
2022-12-03T20:39:25.227Z,98282.13
2022-12-03T20:41:55.619Z,98282.17
2022-12-03T20:44:26.110Z,98281.68
2022-12-03T20:46:56.490Z,98279.48
2022-12-03T20:49:26.933Z,98279.30
2022-12-03T20:52:01.171Z,98279.29
2022-12-03T20:54:34.612Z,98279.14
2022-12-03T20:57:05.273Z,98273.83
2022-12-03T20:59:35.682Z,98272.95
2022-12-03T21:02:07.782Z,98272.75
2022-12-03T21:04:38.309Z,98271.08
2022-12-03T21:07:08.679Z,98264.62
2022-12-03T21:09:39.117Z,98265.67
2022-12-03T21:12:09.850Z,98266.49
2022-12-03T21:14:40.192Z,98261.34
2022-12-03T21:17:10.963Z,98258.59
2022-12-03T21:19:41.780Z,98258.43
2022-12-03T21:22:12.188Z,98255.56
2022-12-03T21:24:43.354Z,98251.82
2022-12-03T21:27:19.898Z,98256.02
2022-12-03T21:29:52.824Z,98250.91
2022-12-03T21:32:23.402Z,98251.42
2022-12-03T21:34:53.787Z,98247.02
2022-12-03T21:37:24.169Z,98245.80
2022-12-03T21:39:54.869Z,98246.45
2022-12-03T21:42:35.593Z,98244.55
2022-12-03T21:45:09.123Z,98245.23
2022-12-03T21:47:39.701Z,98250.04
2022-12-03T21:50:12.185Z,98249.52
2022-12-03T21:52:42.979Z,98251.02
2022-12-03T21:55:13.488Z,98252.02
2022-12-03T21:57:43.875Z,98252.38
2022-12-03T22:00:16.723Z,98254.09
2022-12-03T22:02:47.303Z,98258.72
2022-12-03T22:05:17.933Z,98255.13
2022-12-03T22:07:48.486Z,98255.08
2022-12-03T22:10:18.983Z,98253.17
2022-12-03T22:12:51.370Z,98247.06
2022-12-03T22:15:21.827Z,98245.70
2022-12-03T22:17:52.269Z,98246.73
2022-12-03T22:20:22.851Z,98247.38
2022-12-03T22:22:53.349Z,98245.36
2022-12-03T22:25:23.796Z,98245.36
2022-12-03T22:27:54.288Z,98241.10
2022-12-03T22:30:24.696Z,98241.76
2022-12-03T22:32:55.103Z,98244.98
2022-12-03T22:35:25.522Z,98241.59
2022-12-03T22:37:56.118Z,98244.85
2022-12-03T22:40:26.470Z,98239.60
2022-12-03T22:42:56.866Z,98237.91
2022-12-03T22:45:27.228Z,98239.75
2022-12-03T22:47:57.665Z,98239.05
2022-12-03T22:50:28.202Z,98237.55
2022-12-03T22:52:59.015Z,98236.55
2022-12-03T22:55:29.463Z,98231.42
2022-12-03T22:57:59.842Z,98231.23
2022-12-03T23:00:34.563Z,98225.75
2022-12-03T23:03:05.563Z,98226.25
2022-12-03T23:05:38.738Z,98217.45
2022-12-03T23:08:08.011Z,98219.84
2022-12-03T23:10:40.907Z,98212.83
2022-12-03T23:13:12.356Z,98210.41
2022-12-03T23:15:47.976Z,98212.25
2022-12-03T23:18:18.699Z,98212.56
2022-12-03T23:20:51.148Z,98202.69
2022-12-03T23:23:22.812Z,98202.33
2022-12-03T23:26:00.583Z,98197.36
2022-12-03T23:28:32.739Z,98196.31
2022-12-03T23:31:03.789Z,98192.91
2022-12-03T23:33:38.402Z,98197.05
2022-12-03T23:36:10.604Z,98196.23
2022-12-03T23:38:41.965Z,98189.04
2022-12-03T23:41:14.944Z,98181.70
2022-12-03T23:43:44.283Z,98180.64
2022-12-03T23:46:17.955Z,98178.80
2022-12-03T23:48:48.475Z,98180.46
2022-12-03T23:51:20.548Z,98183.34
2022-12-03T23:53:51.104Z,98183.48
2022-12-03T23:56:23.951Z,98178.04
2022-12-03T23:58:54.328Z,98175.17
